sensor_id;sensor_type;location;lat;lon;timestamp;P1;durP1;ratioP1;P2;durP2;ratioP2
56629;SDS011;42502;40.732;-74.254;2022-12-16T00:01:01;0.82;;;0.50;;
56629;SDS011;42502;40.732;-74.254;2022-12-16T00:03:03;3.45;;;0.45;;
56629;SDS011;42502;40.732;-74.254;2022-12-16T00:05:04;1.58;;;0.40;;
56629;SDS011;42502;40.732;-74.254;2022-12-16T00:07:06;4.57;;;0.40;;
56629;SDS011;42502;40.732;-74.254;2022-12-16T00:09:06;1.25;;;0.40;;
56629;SDS011;42502;40.732;-74.254;2022-12-16T00:11:08;1.17;;;0.60;;
56629;SDS011;42502;40.732;-74.254;2022-12-16T00:13:09;3.33;;;0.43;;
56629;SDS011;42502;40.732;-74.254;2022-12-16T00:15:10;1.88;;;0.40;;
56629;SDS011;42502;40.732;-74.254;2022-12-16T00:17:14;2.28;;;0.40;;
56629;SDS011;42502;40.732;-74.254;2022-12-16T00:19:15;1.52;;;0.40;;
56629;SDS011;42502;40.732;-74.254;2022-12-16T00:21:16;0.73;;;0.30;;
56629;SDS011;42502;40.732;-74.254;2022-12-16T00:23:20;1.85;;;0.40;;
56629;SDS011;42502;40.732;-74.254;2022-12-16T00:25:21;0.60;;;0.30;;
56629;SDS011;42502;40.732;-74.254;2022-12-16T00:27:22;1.75;;;0.40;;
56629;SDS011;42502;40.732;-74.254;2022-12-16T00:29:23;2.75;;;0.45;;
56629;SDS011;42502;40.732;-74.254;2022-12-16T00:31:26;0.57;;;0.30;;
56629;SDS011;42502;40.732;-74.254;2022-12-16T00:33:27;1.98;;;0.30;;
56629;SDS011;42502;40.732;-74.254;2022-12-16T00:35:28;1.98;;;0.50;;
56629;SDS011;42502;40.732;-74.254;2022-12-16T00:37:32;4.13;;;0.60;;
56629;SDS011;42502;40.732;-74.254;2022-12-16T00:39:33;1.70;;;0.40;;
56629;SDS011;42502;40.732;-74.254;2022-12-16T00:41:34;5.45;;;0.32;;
56629;SDS011;42502;40.732;-74.254;2022-12-16T00:43:35;2.83;;;0.40;;
56629;SDS011;42502;40.732;-74.254;2022-12-16T00:45:35;1.88;;;0.38;;
56629;SDS011;42502;40.732;-74.254;2022-12-16T00:47:36;4.07;;;0.38;;
56629;SDS011;42502;40.732;-74.254;2022-12-16T00:49:37;2.35;;;0.30;;
56629;SDS011;42502;40.732;-74.254;2022-12-16T00:51:38;1.88;;;0.30;;
56629;SDS011;42502;40.732;-74.254;2022-12-16T00:53:42;1.33;;;0.30;;
56629;SDS011;42502;40.732;-74.254;2022-12-16T00:55:43;1.33;;;0.50;;
56629;SDS011;42502;40.732;-74.254;2022-12-16T00:57:45;1.63;;;0.40;;
56629;SDS011;42502;40.732;-74.254;2022-12-16T00:59:46;1.23;;;0.30;;
56629;SDS011;42502;40.732;-74.254;2022-12-16T01:01:47;2.92;;;0.47;;
56629;SDS011;42502;40.732;-74.254;2022-12-16T01:03:51;3.35;;;0.40;;
56629;SDS011;42502;40.732;-74.254;2022-12-16T01:05:55;2.53;;;0.40;;
56629;SDS011;42502;40.732;-74.254;2022-12-16T01:07:59;1.73;;;0.20;;
56629;SDS011;42502;40.732;-74.254;2022-12-16T01:10:00;4.95;;;0.40;;
56629;SDS011;42502;40.732;-74.254;2022-12-16T01:12:03;6.63;;;0.38;;
56629;SDS011;42502;40.732;-74.254;2022-12-16T01:14:05;2.38;;;0.50;;
56629;SDS011;42502;40.732;-74.254;2022-12-16T01:16:06;3.40;;;0.40;;
56629;SDS011;42502;40.732;-74.254;2022-12-16T01:18:07;4.22;;;0.50;;
56629;SDS011;42502;40.732;-74.254;2022-12-16T01:20:10;14.18;;;0.50;;
56629;SDS011;42502;40.732;-74.254;2022-12-16T01:22:12;1.75;;;0.25;;
56629;SDS011;42502;40.732;-74.254;2022-12-16T01:24:15;3.15;;;0.28;;
56629;SDS011;42502;40.732;-74.254;2022-12-16T01:26:16;5.90;;;0.32;;
56629;SDS011;42502;40.732;-74.254;2022-12-16T01:28:20;2.85;;;0.30;;
56629;SDS011;42502;40.732;-74.254;2022-12-16T01:30:21;3.95;;;0.38;;
56629;SDS011;42502;40.732;-74.254;2022-12-16T01:32:22;1.30;;;0.40;;
56629;SDS011;42502;40.732;-74.254;2022-12-16T01:34:23;5.18;;;0.40;;
56629;SDS011;42502;40.732;-74.254;2022-12-16T01:36:24;4.32;;;0.40;;
56629;SDS011;42502;40.732;-74.254;2022-12-16T01:38:26;3.33;;;0.40;;
56629;SDS011;42502;40.732;-74.254;2022-12-16T01:40:27;5.25;;;0.38;;
56629;SDS011;42502;40.732;-74.254;2022-12-16T01:42:29;4.20;;;0.40;;
56629;SDS011;42502;40.732;-74.254;2022-12-16T01:44:32;2.65;;;0.40;;
56629;SDS011;42502;40.732;-74.254;2022-12-16T01:46:36;1.40;;;0.30;;
56629;SDS011;42502;40.732;-74.254;2022-12-16T01:48:44;3.75;;;0.40;;
56629;SDS011;42502;40.732;-74.254;2022-12-16T01:50:45;5.32;;;0.50;;
56629;SDS011;42502;40.732;-74.254;2022-12-16T01:52:50;5.00;;;0.30;;
56629;SDS011;42502;40.732;-74.254;2022-12-16T01:55:01;4.55;;;0.40;;
56629;SDS011;42502;40.732;-74.254;2022-12-16T01:57:29;9.70;;;0.50;;
56629;SDS011;42502;40.732;-74.254;2022-12-16T01:59:37;4.53;;;0.30;;
56629;SDS011;42502;40.732;-74.254;2022-12-16T02:01:40;3.13;;;0.40;;
56629;SDS011;42502;40.732;-74.254;2022-12-16T02:03:44;8.13;;;0.40;;
56629;SDS011;42502;40.732;-74.254;2022-12-16T02:05:47;2.53;;;0.38;;
56629;SDS011;42502;40.732;-74.254;2022-12-16T02:07:53;3.95;;;0.43;;
56629;SDS011;42502;40.732;-74.254;2022-12-16T02:09:58;5.03;;;0.40;;
56629;SDS011;42502;40.732;-74.254;2022-12-16T02:19:24;3.60;;;0.40;;
56629;SDS011;42502;40.732;-74.254;2022-12-16T02:21:30;3.20;;;0.28;;
56629;SDS011;42502;40.732;-74.254;2022-12-16T02:24:00;1.60;;;0.30;;
56629;SDS011;42502;40.732;-74.254;2022-12-16T02:28:47;4.20;;;0.32;;
56629;SDS011;42502;40.732;-74.254;2022-12-16T02:34:09;3.13;;;0.40;;
56629;SDS011;42502;40.732;-74.254;2022-12-16T02:41:11;2.38;;;0.30;;
56629;SDS011;42502;40.732;-74.254;2022-12-16T02:45:43;2.05;;;0.30;;
56629;SDS011;42502;40.732;-74.254;2022-12-16T02:47:44;3.53;;;0.30;;
56629;SDS011;42502;40.732;-74.254;2022-12-16T02:49:47;2.33;;;0.38;;
56629;SDS011;42502;40.732;-74.254;2022-12-16T02:51:53;3.20;;;0.30;;
56629;SDS011;42502;40.732;-74.254;2022-12-16T02:53:56;1.38;;;0.22;;
56629;SDS011;42502;40.732;-74.254;2022-12-16T02:58:18;2.40;;;0.20;;
56629;SDS011;42502;40.732;-74.254;2022-12-16T03:02:54;1.05;;;0.30;;
56629;SDS011;42502;40.732;-74.254;2022-12-16T03:05:24;5.80;;;0.30;;
56629;SDS011;42502;40.732;-74.254;2022-12-16T03:07:25;3.10;;;0.30;;
56629;SDS011;42502;40.732;-74.254;2022-12-16T03:09:31;1.70;;;0.38;;
56629;SDS011;42502;40.732;-74.254;2022-12-16T03:11:34;7.18;;;0.20;;
56629;SDS011;42502;40.732;-74.254;2022-12-16T03:13:41;1.02;;;0.30;;
56629;SDS011;42502;40.732;-74.254;2022-12-16T03:15:49;4.95;;;0.28;;
56629;SDS011;42502;40.732;-74.254;2022-12-16T03:17:58;1.75;;;0.30;;
56629;SDS011;42502;40.732;-74.254;2022-12-16T03:20:06;1.88;;;0.30;;
56629;SDS011;42502;40.732;-74.254;2022-12-16T03:22:13;2.72;;;0.30;;
56629;SDS011;42502;40.732;-74.254;2022-12-16T03:24:19;0.70;;;0.20;;
56629;SDS011;42502;40.732;-74.254;2022-12-16T03:26:22;3.53;;;0.40;;
56629;SDS011;42502;40.732;-74.254;2022-12-16T03:28:51;5.95;;;0.30;;
56629;SDS011;42502;40.732;-74.254;2022-12-16T03:31:03;0.70;;;0.20;;
56629;SDS011;42502;40.732;-74.254;2022-12-16T03:35:16;1.33;;;0.32;;
56629;SDS011;42502;40.732;-74.254;2022-12-16T03:37:21;1.88;;;0.20;;
56629;SDS011;42502;40.732;-74.254;2022-12-16T03:39:26;1.05;;;0.30;;
56629;SDS011;42502;40.732;-74.254;2022-12-16T03:41:28;1.10;;;0.20;;
56629;SDS011;42502;40.732;-74.254;2022-12-16T03:43:31;1.52;;;0.20;;
56629;SDS011;42502;40.732;-74.254;2022-12-16T03:45:37;1.88;;;0.30;;
56629;SDS011;42502;40.732;-74.254;2022-12-16T03:47:41;1.23;;;0.28;;
56629;SDS011;42502;40.732;-74.254;2022-12-16T03:49:41;0.88;;;0.20;;
56629;SDS011;42502;40.732;-74.254;2022-12-16T03:51:42;2.55;;;0.20;;
56629;SDS011;42502;40.732;-74.254;2022-12-16T03:53:43;1.27;;;0.30;;
56629;SDS011;42502;40.732;-74.254;2022-12-16T03:55:45;1.88;;;0.30;;
56629;SDS011;42502;40.732;-74.254;2022-12-16T03:57:46;6.20;;;0.40;;
56629;SDS011;42502;40.732;-74.254;2022-12-16T03:59:47;1.45;;;0.20;;
56629;SDS011;42502;40.732;-74.254;2022-12-16T04:01:47;2.63;;;0.20;;
56629;SDS011;42502;40.732;-74.254;2022-12-16T04:03:52;1.58;;;0.20;;
56629;SDS011;42502;40.732;-74.254;2022-12-16T04:05:53;1.35;;;0.30;;
56629;SDS011;42502;40.732;-74.254;2022-12-16T04:07:56;0.80;;;0.20;;
56629;SDS011;42502;40.732;-74.254;2022-12-16T04:09:57;1.30;;;0.20;;
56629;SDS011;42502;40.732;-74.254;2022-12-16T04:11:58;0.47;;;0.13;;
56629;SDS011;42502;40.732;-74.254;2022-12-16T04:14:17;0.75;;;0.20;;
56629;SDS011;42502;40.732;-74.254;2022-12-16T04:16:37;0.77;;;0.20;;
56629;SDS011;42502;40.732;-74.254;2022-12-16T04:18:56;1.30;;;0.22;;
56629;SDS011;42502;40.732;-74.254;2022-12-16T04:21:16;1.35;;;0.25;;
56629;SDS011;42502;40.732;-74.254;2022-12-16T04:23:35;0.85;;;0.20;;
56629;SDS011;42502;40.732;-74.254;2022-12-16T04:26:00;2.13;;;0.15;;
56629;SDS011;42502;40.732;-74.254;2022-12-16T04:28:01;0.40;;;0.10;;
56629;SDS011;42502;40.732;-74.254;2022-12-16T04:30:02;0.98;;;0.30;;
56629;SDS011;42502;40.732;-74.254;2022-12-16T04:34:25;1.55;;;0.20;;
56629;SDS011;42502;40.732;-74.254;2022-12-16T04:36:31;1.88;;;0.20;;
56629;SDS011;42502;40.732;-74.254;2022-12-16T04:38:50;0.32;;;0.13;;
56629;SDS011;42502;40.732;-74.254;2022-12-16T04:41:12;0.57;;;0.20;;
56629;SDS011;42502;40.732;-74.254;2022-12-16T04:43:32;0.82;;;0.20;;
56629;SDS011;42502;40.732;-74.254;2022-12-16T04:45:51;0.20;;;0.10;;
56629;SDS011;42502;40.732;-74.254;2022-12-16T04:48:15;2.45;;;0.10;;
56629;SDS011;42502;40.732;-74.254;2022-12-16T04:50:34;2.63;;;0.20;;
56629;SDS011;42502;40.732;-74.254;2022-12-16T04:52:53;0.73;;;0.20;;
56629;SDS011;42502;40.732;-74.254;2022-12-16T04:55:13;0.17;;;0.10;;
56629;SDS011;42502;40.732;-74.254;2022-12-16T04:57:32;0.50;;;0.17;;
56629;SDS011;42502;40.732;-74.254;2022-12-16T04:59:54;0.90;;;0.10;;
56629;SDS011;42502;40.732;-74.254;2022-12-16T05:02:14;1.05;;;0.20;;
56629;SDS011;42502;40.732;-74.254;2022-12-16T05:04:33;1.48;;;0.20;;
56629;SDS011;42502;40.732;-74.254;2022-12-16T05:06:58;0.82;;;0.17;;
56629;SDS011;42502;40.732;-74.254;2022-12-16T05:09:17;0.60;;;0.20;;
56629;SDS011;42502;40.732;-74.254;2022-12-16T05:11:37;2.00;;;0.20;;
56629;SDS011;42502;40.732;-74.254;2022-12-16T05:13:56;1.85;;;0.20;;
56629;SDS011;42502;40.732;-74.254;2022-12-16T05:16:16;1.23;;;0.20;;
56629;SDS011;42502;40.732;-74.254;2022-12-16T05:18:35;0.95;;;0.10;;
56629;SDS011;42502;40.732;-74.254;2022-12-16T05:20:56;1.00;;;0.10;;
56629;SDS011;42502;40.732;-74.254;2022-12-16T05:23:15;1.55;;;0.20;;
56629;SDS011;42502;40.732;-74.254;2022-12-16T05:25:35;0.52;;;0.20;;
56629;SDS011;42502;40.732;-74.254;2022-12-16T05:27:54;0.45;;;0.10;;
56629;SDS011;42502;40.732;-74.254;2022-12-16T05:30:14;0.52;;;0.20;;
56629;SDS011;42502;40.732;-74.254;2022-12-16T05:32:36;1.13;;;0.10;;
56629;SDS011;42502;40.732;-74.254;2022-12-16T05:34:55;0.13;;;0.10;;
56629;SDS011;42502;40.732;-74.254;2022-12-16T05:37:15;2.35;;;0.10;;
56629;SDS011;42502;40.732;-74.254;2022-12-16T05:39:34;1.58;;;0.20;;
56629;SDS011;42502;40.732;-74.254;2022-12-16T05:41:56;0.25;;;0.10;;
56629;SDS011;42502;40.732;-74.254;2022-12-16T05:44:16;0.40;;;0.20;;
56629;SDS011;42502;40.732;-74.254;2022-12-16T05:46:35;0.68;;;0.10;;
56629;SDS011;42502;40.732;-74.254;2022-12-16T05:48:55;0.60;;;0.20;;
56629;SDS011;42502;40.732;-74.254;2022-12-16T05:51:19;1.35;;;0.13;;
56629;SDS011;42502;40.732;-74.254;2022-12-16T05:53:38;0.22;;;0.10;;
56629;SDS011;42502;40.732;-74.254;2022-12-16T05:55:57;0.60;;;0.20;;
56629;SDS011;42502;40.732;-74.254;2022-12-16T05:58:17;1.60;;;0.20;;
56629;SDS011;42502;40.732;-74.254;2022-12-16T06:00:36;2.25;;;0.10;;
56629;SDS011;42502;40.732;-74.254;2022-12-16T06:02:56;1.50;;;0.10;;
56629;SDS011;42502;40.732;-74.254;2022-12-16T06:05:15;0.90;;;0.10;;
56629;SDS011;42502;40.732;-74.254;2022-12-16T06:07:35;1.20;;;0.28;;
56629;SDS011;42502;40.732;-74.254;2022-12-16T06:09:54;0.75;;;0.20;;
56629;SDS011;42502;40.732;-74.254;2022-12-16T06:12:13;1.10;;;0.10;;
56629;SDS011;42502;40.732;-74.254;2022-12-16T06:14:32;0.63;;;0.10;;
56629;SDS011;42502;40.732;-74.254;2022-12-16T06:16:52;0.30;;;0.10;;
56629;SDS011;42502;40.732;-74.254;2022-12-16T06:19:11;0.60;;;0.20;;
56629;SDS011;42502;40.732;-74.254;2022-12-16T06:21:34;0.43;;;0.03;;
56629;SDS011;42502;40.732;-74.254;2022-12-16T06:23:53;0.30;;;0.10;;
56629;SDS011;42502;40.732;-74.254;2022-12-16T06:26:13;2.20;;;0.20;;
56629;SDS011;42502;40.732;-74.254;2022-12-16T06:28:32;0.65;;;0.20;;
56629;SDS011;42502;40.732;-74.254;2022-12-16T06:30:54;0.30;;;0.10;;
56629;SDS011;42502;40.732;-74.254;2022-12-16T06:33:14;0.15;;;0.10;;
56629;SDS011;42502;40.732;-74.254;2022-12-16T06:35:33;0.73;;;0.10;;
56629;SDS011;42502;40.732;-74.254;2022-12-16T06:37:55;3.08;;;0.17;;
56629;SDS011;42502;40.732;-74.254;2022-12-16T06:40:14;0.60;;;0.20;;
56629;SDS011;42502;40.732;-74.254;2022-12-16T06:42:37;0.93;;;0.10;;
56629;SDS011;42502;40.732;-74.254;2022-12-16T06:44:58;0.10;;;0.10;;
56629;SDS011;42502;40.732;-74.254;2022-12-16T06:47:20;1.45;;;0.10;;
56629;SDS011;42502;40.732;-74.254;2022-12-16T06:49:40;0.43;;;0.10;;
56629;SDS011;42502;40.732;-74.254;2022-12-16T06:51:59;0.57;;;0.00;;
56629;SDS011;42502;40.732;-74.254;2022-12-16T06:54:18;0.40;;;0.10;;
56629;SDS011;42502;40.732;-74.254;2022-12-16T06:56:45;0.40;;;0.10;;
56629;SDS011;42502;40.732;-74.254;2022-12-16T06:59:05;0.10;;;0.10;;
56629;SDS011;42502;40.732;-74.254;2022-12-16T07:01:27;0.40;;;0.10;;
56629;SDS011;42502;40.732;-74.254;2022-12-16T07:03:46;0.52;;;0.05;;
56629;SDS011;42502;40.732;-74.254;2022-12-16T07:06:06;2.42;;;0.10;;
56629;SDS011;42502;40.732;-74.254;2022-12-16T07:08:25;0.63;;;0.10;;
56629;SDS011;42502;40.732;-74.254;2022-12-16T07:10:44;0.55;;;0.13;;
56629;SDS011;42502;40.732;-74.254;2022-12-16T07:13:04;0.73;;;0.10;;
56629;SDS011;42502;40.732;-74.254;2022-12-16T07:15:26;0.55;;;0.10;;
56629;SDS011;42502;40.732;-74.254;2022-12-16T07:17:46;0.30;;;0.10;;
56629;SDS011;42502;40.732;-74.254;2022-12-16T07:20:08;1.20;;;0.10;;
56629;SDS011;42502;40.732;-74.254;2022-12-16T07:22:28;1.33;;;0.10;;
56629;SDS011;42502;40.732;-74.254;2022-12-16T07:24:48;1.25;;;0.10;;
56629;SDS011;42502;40.732;-74.254;2022-12-16T07:27:07;0.20;;;0.03;;
56629;SDS011;42502;40.732;-74.254;2022-12-16T07:29:27;0.05;;;0.00;;
56629;SDS011;42502;40.732;-74.254;2022-12-16T07:31:46;0.30;;;0.10;;
56629;SDS011;42502;40.732;-74.254;2022-12-16T07:34:05;0.60;;;0.10;;
56629;SDS011;42502;40.732;-74.254;2022-12-16T07:36:25;0.40;;;0.08;;
56629;SDS011;42502;40.732;-74.254;2022-12-16T07:38:44;0.10;;;0.00;;
56629;SDS011;42502;40.732;-74.254;2022-12-16T07:41:03;0.77;;;0.10;;
56629;SDS011;42502;40.732;-74.254;2022-12-16T07:43:23;0.22;;;0.10;;
56629;SDS011;42502;40.732;-74.254;2022-12-16T07:45:44;0.32;;;0.10;;
56629;SDS011;42502;40.732;-74.254;2022-12-16T07:48:04;1.40;;;0.10;;
56629;SDS011;42502;40.732;-74.254;2022-12-16T07:50:23;0.32;;;0.10;;
56629;SDS011;42502;40.732;-74.254;2022-12-16T07:52:45;1.75;;;0.00;;
56629;SDS011;42502;40.732;-74.254;2022-12-16T07:55:13;0.65;;;0.10;;
56629;SDS011;42502;40.732;-74.254;2022-12-16T07:57:33;0.30;;;0.10;;
56629;SDS011;42502;40.732;-74.254;2022-12-16T07:59:52;0.20;;;0.10;;
56629;SDS011;42502;40.732;-74.254;2022-12-16T08:02:12;3.20;;;0.10;;
56629;SDS011;42502;40.732;-74.254;2022-12-16T08:04:31;0.10;;;0.00;;
56629;SDS011;42502;40.732;-74.254;2022-12-16T08:06:51;0.85;;;0.10;;
56629;SDS011;42502;40.732;-74.254;2022-12-16T08:09:10;0.63;;;0.08;;
56629;SDS011;42502;40.732;-74.254;2022-12-16T08:11:30;0.20;;;0.00;;
56629;SDS011;42502;40.732;-74.254;2022-12-16T08:13:49;0.70;;;0.10;;
56629;SDS011;42502;40.732;-74.254;2022-12-16T08:16:08;0.98;;;0.10;;
56629;SDS011;42502;40.732;-74.254;2022-12-16T08:18:28;1.08;;;0.10;;
56629;SDS011;42502;40.732;-74.254;2022-12-16T08:20:50;0.20;;;0.10;;
56629;SDS011;42502;40.732;-74.254;2022-12-16T08:23:10;0.52;;;0.10;;
56629;SDS011;42502;40.732;-74.254;2022-12-16T08:25:29;1.48;;;0.05;;
56629;SDS011;42502;40.732;-74.254;2022-12-16T08:28:01;0.22;;;0.10;;
56629;SDS011;42502;40.732;-74.254;2022-12-16T08:30:20;0.20;;;0.10;;
56629;SDS011;42502;40.732;-74.254;2022-12-16T08:32:42;0.95;;;0.10;;
56629;SDS011;42502;40.732;-74.254;2022-12-16T08:35:01;2.70;;;0.10;;
56629;SDS011;42502;40.732;-74.254;2022-12-16T08:37:27;0.20;;;0.10;;
56629;SDS011;42502;40.732;-74.254;2022-12-16T08:39:47;0.32;;;0.03;;
56629;SDS011;42502;40.732;-74.254;2022-12-16T08:42:06;0.17;;;0.00;;
56629;SDS011;42502;40.732;-74.254;2022-12-16T08:44:26;0.68;;;0.00;;
56629;SDS011;42502;40.732;-74.254;2022-12-16T08:46:45;0.57;;;0.00;;
56629;SDS011;42502;40.732;-74.254;2022-12-16T08:49:05;1.85;;;0.10;;
56629;SDS011;42502;40.732;-74.254;2022-12-16T08:51:25;0.17;;;0.00;;
56629;SDS011;42502;40.732;-74.254;2022-12-16T08:53:44;0.20;;;0.00;;
56629;SDS011;42502;40.732;-74.254;2022-12-16T08:56:06;0.40;;;0.10;;
56629;SDS011;42502;40.732;-74.254;2022-12-16T08:58:25;0.22;;;0.10;;
56629;SDS011;42502;40.732;-74.254;2022-12-16T09:00:45;0.25;;;0.10;;
56629;SDS011;42502;40.732;-74.254;2022-12-16T09:03:04;1.15;;;0.05;;
56629;SDS011;42502;40.732;-74.254;2022-12-16T09:05:23;0.90;;;0.00;;
56629;SDS011;42502;40.732;-74.254;2022-12-16T09:07:43;0.82;;;0.10;;
56629;SDS011;42502;40.732;-74.254;2022-12-16T09:10:03;0.10;;;0.00;;
56629;SDS011;42502;40.732;-74.254;2022-12-16T09:12:23;0.10;;;0.03;;
56629;SDS011;42502;40.732;-74.254;2022-12-16T09:14:45;0.55;;;0.10;;
56629;SDS011;42502;40.732;-74.254;2022-12-16T09:17:05;0.20;;;0.03;;
56629;SDS011;42502;40.732;-74.254;2022-12-16T09:19:24;0.38;;;0.10;;
56629;SDS011;42502;40.732;-74.254;2022-12-16T09:21:44;0.47;;;0.00;;
56629;SDS011;42502;40.732;-74.254;2022-12-16T09:24:03;1.85;;;0.10;;
56629;SDS011;42502;40.732;-74.254;2022-12-16T09:26:23;0.20;;;0.08;;
56629;SDS011;42502;40.732;-74.254;2022-12-16T09:28:42;1.27;;;0.13;;
56629;SDS011;42502;40.732;-74.254;2022-12-16T09:31:02;0.30;;;0.10;;
56629;SDS011;42502;40.732;-74.254;2022-12-16T09:33:21;1.27;;;0.10;;
56629;SDS011;42502;40.732;-74.254;2022-12-16T09:35:41;0.20;;;0.00;;
56629;SDS011;42502;40.732;-74.254;2022-12-16T09:38:03;0.40;;;0.00;;
56629;SDS011;42502;40.732;-74.254;2022-12-16T09:40:22;0.75;;;0.10;;
56629;SDS011;42502;40.732;-74.254;2022-12-16T09:48:01;0.20;;;0.00;;
56629;SDS011;42502;40.732;-74.254;2022-12-16T09:53:21;0.50;;;0.10;;
56629;SDS011;42502;40.732;-74.254;2022-12-16T09:55:40;0.20;;;0.10;;
56629;SDS011;42502;40.732;-74.254;2022-12-16T09:58:02;0.47;;;0.10;;
56629;SDS011;42502;40.732;-74.254;2022-12-16T10:00:22;0.73;;;0.10;;
56629;SDS011;42502;40.732;-74.254;2022-12-16T10:02:45;0.30;;;0.10;;
56629;SDS011;42502;40.732;-74.254;2022-12-16T10:05:10;0.17;;;0.10;;
56629;SDS011;42502;40.732;-74.254;2022-12-16T10:07:32;0.13;;;0.10;;
56629;SDS011;42502;40.732;-74.254;2022-12-16T10:15:42;0.50;;;0.00;;
56629;SDS011;42502;40.732;-74.254;2022-12-16T10:21:06;1.88;;;0.10;;
56629;SDS011;42502;40.732;-74.254;2022-12-16T10:27:01;0.65;;;0.10;;
56629;SDS011;42502;40.732;-74.254;2022-12-16T10:29:19;0.28;;;0.00;;
56629;SDS011;42502;40.732;-74.254;2022-12-16T10:31:38;0.50;;;0.10;;
56629;SDS011;42502;40.732;-74.254;2022-12-16T10:33:58;0.32;;;0.10;;
56629;SDS011;42502;40.732;-74.254;2022-12-16T10:36:19;1.27;;;0.10;;
56629;SDS011;42502;40.732;-74.254;2022-12-16T10:38:41;3.72;;;0.10;;
56629;SDS011;42502;40.732;-74.254;2022-12-16T10:41:04;0.30;;;0.10;;
56629;SDS011;42502;40.732;-74.254;2022-12-16T10:43:37;2.28;;;0.10;;
56629;SDS011;42502;40.732;-74.254;2022-12-16T10:46:00;0.55;;;0.00;;
56629;SDS011;42502;40.732;-74.254;2022-12-16T10:48:30;1.30;;;0.10;;
56629;SDS011;42502;40.732;-74.254;2022-12-16T10:50:50;0.35;;;0.10;;
56629;SDS011;42502;40.732;-74.254;2022-12-16T10:53:14;0.80;;;0.10;;
56629;SDS011;42502;40.732;-74.254;2022-12-16T10:58:49;0.20;;;0.03;;
56629;SDS011;42502;40.732;-74.254;2022-12-16T11:01:21;0.10;;;0.00;;
56629;SDS011;42502;40.732;-74.254;2022-12-16T11:03:42;0.20;;;0.10;;
56629;SDS011;42502;40.732;-74.254;2022-12-16T11:06:02;0.50;;;0.08;;
56629;SDS011;42502;40.732;-74.254;2022-12-16T11:08:23;0.30;;;0.10;;
56629;SDS011;42502;40.732;-74.254;2022-12-16T11:10:45;0.93;;;0.10;;
56629;SDS011;42502;40.732;-74.254;2022-12-16T11:15:45;0.65;;;0.10;;
56629;SDS011;42502;40.732;-74.254;2022-12-16T11:18:22;0.25;;;0.00;;
56629;SDS011;42502;40.732;-74.254;2022-12-16T11:20:45;0.08;;;0.00;;
56629;SDS011;42502;40.732;-74.254;2022-12-16T11:23:22;0.77;;;0.10;;
56629;SDS011;42502;40.732;-74.254;2022-12-16T11:25:45;1.33;;;0.10;;
56629;SDS011;42502;40.732;-74.254;2022-12-16T11:28:05;0.65;;;0.10;;
56629;SDS011;42502;40.732;-74.254;2022-12-16T11:30:33;1.85;;;0.10;;
56629;SDS011;42502;40.732;-74.254;2022-12-16T11:32:53;1.88;;;0.10;;
56629;SDS011;42502;40.732;-74.254;2022-12-16T11:35:16;0.17;;;0.00;;
56629;SDS011;42502;40.732;-74.254;2022-12-16T11:37:37;1.42;;;0.10;;
56629;SDS011;42502;40.732;-74.254;2022-12-16T11:39:59;0.75;;;0.05;;
56629;SDS011;42502;40.732;-74.254;2022-12-16T11:42:24;1.35;;;0.10;;
56629;SDS011;42502;40.732;-74.254;2022-12-16T11:44:50;1.88;;;0.10;;
56629;SDS011;42502;40.732;-74.254;2022-12-16T11:47:23;3.75;;;0.10;;
56629;SDS011;42502;40.732;-74.254;2022-12-16T11:49:56;5.40;;;0.10;;
56629;SDS011;42502;40.732;-74.254;2022-12-16T11:52:19;0.93;;;0.13;;
56629;SDS011;42502;40.732;-74.254;2022-12-16T11:54:43;0.95;;;0.10;;
56629;SDS011;42502;40.732;-74.254;2022-12-16T11:57:32;4.82;;;0.10;;
56629;SDS011;42502;40.732;-74.254;2022-12-16T12:00:13;4.93;;;0.20;;
56629;SDS011;42502;40.732;-74.254;2022-12-16T12:06:12;1.33;;;0.10;;
56629;SDS011;42502;40.732;-74.254;2022-12-16T12:11:08;6.63;;;0.10;;
56629;SDS011;42502;40.732;-74.254;2022-12-16T12:16:21;2.58;;;0.32;;
56629;SDS011;42502;40.732;-74.254;2022-12-16T12:18:55;0.25;;;0.00;;
56629;SDS011;42502;40.732;-74.254;2022-12-16T12:21:32;4.95;;;0.10;;
56629;SDS011;42502;40.732;-74.254;2022-12-16T12:32:14;4.57;;;0.20;;
56629;SDS011;42502;40.732;-74.254;2022-12-16T12:34:45;6.72;;;0.40;;
56629;SDS011;42502;40.732;-74.254;2022-12-16T12:37:20;5.80;;;0.40;;
56629;SDS011;42502;40.732;-74.254;2022-12-16T12:47:11;3.00;;;0.40;;
56629;SDS011;42502;40.732;-74.254;2022-12-16T12:49:37;2.80;;;0.40;;
56629;SDS011;42502;40.732;-74.254;2022-12-16T12:52:09;3.42;;;0.30;;
56629;SDS011;42502;40.732;-74.254;2022-12-16T12:54:42;2.05;;;0.30;;
56629;SDS011;42502;40.732;-74.254;2022-12-16T12:57:22;2.70;;;0.30;;
56629;SDS011;42502;40.732;-74.254;2022-12-16T12:59:55;5.70;;;0.40;;
56629;SDS011;42502;40.732;-74.254;2022-12-16T13:02:19;4.20;;;0.30;;
56629;SDS011;42502;40.732;-74.254;2022-12-16T13:04:58;1.40;;;0.40;;
56629;SDS011;42502;40.732;-74.254;2022-12-16T13:07:18;1.75;;;0.40;;
56629;SDS011;42502;40.732;-74.254;2022-12-16T13:09:37;6.10;;;0.50;;
56629;SDS011;42502;40.732;-74.254;2022-12-16T13:21:48;0.90;;;0.30;;
56629;SDS011;42502;40.732;-74.254;2022-12-16T13:27:12;3.60;;;0.82;;
56629;SDS011;42502;40.732;-74.254;2022-12-16T13:29:33;2.25;;;0.30;;
56629;SDS011;42502;40.732;-74.254;2022-12-16T13:31:59;3.92;;;0.28;;
56629;SDS011;42502;40.732;-74.254;2022-12-16T13:34:23;2.45;;;0.30;;
56629;SDS011;42502;40.732;-74.254;2022-12-16T13:36:51;0.50;;;0.20;;
56629;SDS011;42502;40.732;-74.254;2022-12-16T13:39:23;3.20;;;0.40;;
56629;SDS011;42502;40.732;-74.254;2022-12-16T13:41:48;1.05;;;0.25;;
56629;SDS011;42502;40.732;-74.254;2022-12-16T13:44:09;3.92;;;0.43;;
56629;SDS011;42502;40.732;-74.254;2022-12-16T13:46:43;2.28;;;0.32;;
56629;SDS011;42502;40.732;-74.254;2022-12-16T13:52:00;7.18;;;0.40;;
56629;SDS011;42502;40.732;-74.254;2022-12-16T13:54:29;3.60;;;0.40;;
56629;SDS011;42502;40.732;-74.254;2022-12-16T13:56:49;2.15;;;0.30;;
56629;SDS011;42502;40.732;-74.254;2022-12-16T13:59:16;1.98;;;0.30;;
56629;SDS011;42502;40.732;-74.254;2022-12-16T14:01:57;5.07;;;0.30;;
56629;SDS011;42502;40.732;-74.254;2022-12-16T14:04:24;5.30;;;0.40;;
56629;SDS011;42502;40.732;-74.254;2022-12-16T14:06:47;4.07;;;0.35;;
56629;SDS011;42502;40.732;-74.254;2022-12-16T14:09:29;1.65;;;0.30;;
56629;SDS011;42502;40.732;-74.254;2022-12-16T14:11:52;2.40;;;0.40;;
56629;SDS011;42502;40.732;-74.254;2022-12-16T14:14:32;4.97;;;0.40;;
56629;SDS011;42502;40.732;-74.254;2022-12-16T14:17:07;13.32;;;0.40;;
56629;SDS011;42502;40.732;-74.254;2022-12-16T14:25:06;9.88;;;0.55;;
56629;SDS011;42502;40.732;-74.254;2022-12-16T14:27:36;4.38;;;0.40;;
56629;SDS011;42502;40.732;-74.254;2022-12-16T14:29:58;7.95;;;0.30;;
56629;SDS011;42502;40.732;-74.254;2022-12-16T14:32:37;7.68;;;0.40;;
56629;SDS011;42502;40.732;-74.254;2022-12-16T14:35:00;10.38;;;0.40;;
56629;SDS011;42502;40.732;-74.254;2022-12-16T14:37:33;5.72;;;0.60;;
56629;SDS011;42502;40.732;-74.254;2022-12-16T14:39:54;8.85;;;0.45;;
56629;SDS011;42502;40.732;-74.254;2022-12-16T14:42:26;9.73;;;0.40;;
56629;SDS011;42502;40.732;-74.254;2022-12-16T14:44:47;9.07;;;0.40;;
56629;SDS011;42502;40.732;-74.254;2022-12-16T14:47:16;10.07;;;0.40;;
56629;SDS011;42502;40.732;-74.254;2022-12-16T14:49:37;6.53;;;0.40;;
56629;SDS011;42502;40.732;-74.254;2022-12-16T14:52:24;13.15;;;0.43;;
56629;SDS011;42502;40.732;-74.254;2022-12-16T14:54:47;4.32;;;0.40;;
56629;SDS011;42502;40.732;-74.254;2022-12-16T14:57:11;4.43;;;0.20;;
56629;SDS011;42502;40.732;-74.254;2022-12-16T14:59:33;7.70;;;0.47;;
56629;SDS011;42502;40.732;-74.254;2022-12-16T15:01:53;14.20;;;0.77;;